Time,TemperatureF,DewpointF,PressureIn,WindDirection,WindDirectionDegrees,WindSpeedMPH,WindSpeedGustMPH,Humidity,HourlyPrecipIn,Conditions,Clouds,dailyrainin,SoftwareType,DateUTC
2013-05-16 00:01:00,72.1,63.9,-100.00,South,177,0.0,0.0,75,0.00,,,0.00,meteohub,2013-05-16 05:01:00,
2013-05-16 00:06:00,72.0,63.7,-100.00,South,176,0.0,0.0,75,0.00,,,0.00,meteohub,2013-05-16 05:06:00,
2013-05-16 00:11:00,71.8,63.9,-100.00,South,176,0.0,0.0,76,0.00,,,0.00,meteohub,2013-05-16 05:11:00,
2013-05-16 00:16:00,71.8,63.9,-100.00,South,177,0.0,0.0,76,0.00,,,0.00,meteohub,2013-05-16 05:16:00,
2013-05-16 00:21:00,71.4,63.9,-100.00,South,176,0.0,0.0,77,0.00,,,0.00,meteohub,2013-05-16 05:21:00,
2013-05-16 00:27:00,71.1,63.9,-100.00,South,177,0.0,0.0,78,0.00,,,0.00,meteohub,2013-05-16 05:27:00,
2013-05-16 00:32:00,70.9,63.7,-100.00,South,176,0.0,1.0,78,0.00,,,0.00,meteohub,2013-05-16 05:32:00,
2013-05-16 00:37:00,70.7,63.5,-100.00,South,177,0.0,1.0,78,0.00,,,0.00,meteohub,2013-05-16 05:37:00,
2013-05-16 00:42:00,70.9,63.7,-100.00,South,177,0.0,1.0,78,0.00,,,0.00,meteohub,2013-05-16 05:42:00,
2013-05-16 00:47:00,71.1,64.2,-100.00,South,178,0.0,1.0,79,0.00,,,0.00,meteohub,2013-05-16 05:47:00,
2013-05-16 00:52:00,71.2,64.8,-100.00,South,178,0.0,1.0,80,0.00,,,0.00,meteohub,2013-05-16 05:52:00,
2013-05-16 00:57:00,71.2,64.8,-100.00,South,178,0.0,1.0,80,0.00,,,0.00,meteohub,2013-05-16 05:57:00,
2013-05-16 01:02:00,71.4,64.9,-100.00,South,178,0.0,1.0,80,0.00,,,0.00,meteohub,2013-05-16 06:02:00,
2013-05-16 01:07:00,71.4,64.6,-100.00,South,180,0.0,1.0,79,0.00,,,0.00,meteohub,2013-05-16 06:07:00,
2013-05-16 01:12:00,71.4,64.6,-100.00,South,190,0.0,1.0,79,0.00,,,0.00,meteohub,2013-05-16 06:12:00,
2013-05-16 01:17:00,71.4,64.6,-100.00,South,190,0.0,1.0,79,0.00,,,0.00,meteohub,2013-05-16 06:17:00,
2013-05-16 01:22:00,71.4,64.2,-100.00,SSW,192,0.0,1.0,78,0.00,,,0.00,meteohub,2013-05-16 06:22:00,
2013-05-16 01:27:00,71.4,64.6,-100.00,SSW,192,0.0,5.0,79,0.00,,,0.00,meteohub,2013-05-16 06:27:00,
2013-05-16 01:32:00,71.4,64.6,-100.00,SSW,192,0.0,5.0,79,0.00,,,0.00,meteohub,2013-05-16 06:32:00,
2013-05-16 01:37:00,71.4,64.6,-100.00,SSW,192,0.0,1.0,79,0.00,,,0.00,meteohub,2013-05-16 06:37:00,
2013-05-16 01:42:00,71.4,64.6,-100.00,South,191,0.0,1.0,79,0.00,,,0.00,meteohub,2013-05-16 06:42:00,
2013-05-16 01:47:00,71.4,64.6,-100.00,SSW,192,0.0,1.0,79,0.00,,,0.00,meteohub,2013-05-16 06:47:00,
2013-05-16 01:50:00,71.4,64.6,-100.00,SSW,205,0.0,2.0,79,0.00,,,0.00,meteohub,2013-05-16 06:50:00,
2013-05-16 01:55:00,71.4,64.6,-100.00,West,267,1.0,2.0,79,0.00,,,0.00,meteohub,2013-05-16 06:55:00,
2013-05-16 02:00:00,71.8,64.9,-100.00,West,275,0.0,6.0,79,0.00,,,0.00,meteohub,2013-05-16 07:00:00,
2013-05-16 02:06:00,72.0,65.1,-100.00,West,266,0.0,6.0,79,0.00,,,0.00,meteohub,2013-05-16 07:06:00,
2013-05-16 02:11:00,72.0,65.1,-100.00,West,267,0.0,6.0,79,0.00,,,0.00,meteohub,2013-05-16 07:11:00,
2013-05-16 02:16:00,72.0,65.1,-100.00,West,276,0.0,1.0,79,0.00,,,0.00,meteohub,2013-05-16 07:16:00,
2013-05-16 02:21:00,72.0,65.1,-100.00,West,273,0.0,1.0,79,0.00,,,0.00,meteohub,2013-05-16 07:21:00,
2013-05-16 02:26:00,72.0,65.1,-100.00,West,272,0.0,1.0,79,0.00,,,0.00,meteohub,2013-05-16 07:26:00,
2013-05-16 02:31:00,71.8,64.9,-100.00,West,269,0.0,1.0,79,0.00,,,0.00,meteohub,2013-05-16 07:31:00,
2013-05-16 02:36:00,71.6,64.8,-100.00,West,259,0.0,1.0,79,0.00,,,0.00,meteohub,2013-05-16 07:36:00,
2013-05-16 02:41:00,71.2,64.8,-100.00,West,280,0.0,1.0,80,0.00,,,0.00,meteohub,2013-05-16 07:41:00,
2013-05-16 02:46:00,71.2,64.8,-100.00,West,268,0.0,6.0,80,0.00,,,0.00,meteohub,2013-05-16 07:46:00,
2013-05-16 02:51:00,71.1,64.9,-100.00,West,269,0.0,6.0,81,0.00,,,0.00,meteohub,2013-05-16 07:51:00,
2013-05-16 02:56:00,71.1,64.9,-100.00,West,269,0.0,6.0,81,0.00,,,0.00,meteohub,2013-05-16 07:56:00,
2013-05-16 03:01:00,71.1,64.9,-100.00,NW,310,0.0,1.0,81,0.00,,,0.00,meteohub,2013-05-16 08:01:00,
2013-05-16 03:06:00,71.1,64.9,-100.00,NW,310,0.0,1.0,81,0.00,,,0.00,meteohub,2013-05-16 08:06:00,
2013-05-16 03:11:00,70.9,64.8,-100.00,NW,307,0.0,1.0,81,0.00,,,0.00,meteohub,2013-05-16 08:11:00,
2013-05-16 03:17:00,70.9,64.8,-100.00,WNW,300,0.0,1.0,81,0.00,,,0.00,meteohub,2013-05-16 08:17:00,
2013-05-16 03:22:00,70.5,64.4,-100.00,WNW,301,0.0,1.0,81,0.00,,,0.00,meteohub,2013-05-16 08:22:00,
2013-05-16 03:29:00,70.2,64.4,-100.00,WNW,300,0.0,1.0,82,0.00,,,0.00,meteohub,2013-05-16 08:29:00,
2013-05-16 03:34:00,70.0,64.2,-100.00,WNW,301,0.0,1.0,82,0.00,,,0.00,meteohub,2013-05-16 08:34:00,
2013-05-16 03:39:00,69.8,64.4,-100.00,WNW,300,0.0,0.0,83,0.00,,,0.00,meteohub,2013-05-16 08:39:00,
2013-05-16 03:44:00,70.0,64.9,-100.00,WNW,301,0.0,0.0,84,0.00,,,0.00,meteohub,2013-05-16 08:44:00,
2013-05-16 03:49:00,70.0,64.9,-100.00,WNW,301,0.0,0.0,84,0.00,,,0.00,meteohub,2013-05-16 08:49:00,
2013-05-16 03:54:00,70.2,64.8,-100.00,WNW,300,0.0,1.0,83,0.00,,,0.00,meteohub,2013-05-16 08:54:00,
2013-05-16 03:59:00,70.2,64.8,-100.00,WNW,301,0.0,1.0,83,0.00,,,0.00,meteohub,2013-05-16 08:59:00,
2013-05-16 04:04:00,70.2,64.8,-100.00,WNW,300,0.0,1.0,83,0.00,,,0.00,meteohub,2013-05-16 09:04:00,
2013-05-16 04:09:00,70.0,64.6,-100.00,WNW,301,0.0,1.0,83,0.00,,,0.00,meteohub,2013-05-16 09:09:00,
2013-05-16 04:14:00,69.6,64.2,-100.00,WSW,242,0.0,0.0,83,0.00,,,0.00,meteohub,2013-05-16 09:14:00,
2013-05-16 04:19:00,69.4,64.4,-100.00,WSW,243,0.0,1.0,84,0.00,,,0.00,meteohub,2013-05-16 09:19:00,
2013-05-16 04:24:00,69.3,64.6,-100.00,WSW,243,0.0,1.0,85,0.00,,,0.00,meteohub,2013-05-16 09:24:00,
2013-05-16 04:29:00,69.3,64.6,-100.00,WSW,243,0.0,1.0,85,0.00,,,0.00,meteohub,2013-05-16 09:29:00,
2013-05-16 04:34:00,69.1,64.4,-100.00,WSW,243,0.0,1.0,85,0.00,,,0.00,meteohub,2013-05-16 09:34:00,
2013-05-16 04:39:00,68.7,64.0,-100.00,WSW,242,0.0,1.0,85,0.00,,,0.00,meteohub,2013-05-16 09:39:00,
2013-05-16 04:44:00,68.5,64.2,-100.00,WSW,243,0.0,0.0,86,0.00,,,0.00,meteohub,2013-05-16 09:44:00,
2013-05-16 04:49:00,68.2,63.9,-100.00,WSW,242,0.0,0.0,86,0.00,,,0.00,meteohub,2013-05-16 09:49:00,
2013-05-16 04:54:00,67.8,63.9,-100.00,WSW,243,0.0,0.0,87,0.00,,,0.00,meteohub,2013-05-16 09:54:00,
2013-05-16 04:59:00,67.6,63.7,-100.00,WSW,242,0.0,0.0,87,0.00,,,0.00,meteohub,2013-05-16 09:59:00,
2013-05-16 05:04:00,67.5,63.9,-100.00,WSW,242,0.0,1.0,88,0.00,,,0.00,meteohub,2013-05-16 10:04:00,
2013-05-16 05:09:00,67.5,63.9,-100.00,WSW,242,0.0,1.0,88,0.00,,,0.00,meteohub,2013-05-16 10:09:00,
2013-05-16 05:14:00,67.3,63.7,-100.00,WSW,242,0.0,1.0,88,0.00,,,0.00,meteohub,2013-05-16 10:14:00,
2013-05-16 05:19:00,67.1,63.7,-100.00,WSW,242,0.0,1.0,89,0.00,,,0.00,meteohub,2013-05-16 10:19:00,
2013-05-16 05:24:00,66.9,63.5,-100.00,WSW,242,0.0,1.0,89,0.00,,,0.00,meteohub,2013-05-16 10:24:00,
2013-05-16 05:29:00,66.7,63.3,-100.00,WSW,242,0.0,1.0,89,0.00,,,0.00,meteohub,2013-05-16 10:29:00,
2013-05-16 05:34:00,66.6,63.1,-100.00,WSW,242,0.0,1.0,89,0.00,,,0.00,meteohub,2013-05-16 10:34:00,
2013-05-16 05:39:00,66.4,63.0,-100.00,WSW,242,0.0,0.0,89,0.00,,,0.00,meteohub,2013-05-16 10:39:00,
2013-05-16 05:44:00,66.2,63.1,-100.00,WSW,242,0.0,0.0,90,0.00,,,0.00,meteohub,2013-05-16 10:44:00,
2013-05-16 05:49:00,66.0,63.0,-100.00,WSW,242,0.0,0.0,90,0.00,,,0.00,meteohub,2013-05-16 10:49:00,
2013-05-16 05:54:00,66.0,63.0,-100.00,WSW,242,0.0,0.0,90,0.00,,,0.00,meteohub,2013-05-16 10:54:00,
2013-05-16 05:59:00,66.0,63.0,-100.00,WSW,242,0.0,0.0,90,0.00,,,0.00,meteohub,2013-05-16 10:59:00,
2013-05-16 06:04:00,66.0,63.3,-100.00,WSW,242,0.0,1.0,91,0.00,,,0.00,meteohub,2013-05-16 11:04:00,
2013-05-16 06:09:00,66.2,63.9,-100.00,WSW,242,0.0,1.0,92,0.00,,,0.00,meteohub,2013-05-16 11:09:00,
2013-05-16 06:14:00,66.4,63.7,-100.00,WSW,242,0.0,1.0,91,0.00,,,0.00,meteohub,2013-05-16 11:14:00,
2013-05-16 06:19:00,66.4,63.7,-100.00,WSW,242,0.0,0.0,91,0.00,,,0.00,meteohub,2013-05-16 11:19:00,
2013-05-16 06:24:00,66.4,63.7,-100.00,WSW,242,0.0,0.0,91,0.00,,,0.00,meteohub,2013-05-16 11:24:00,
2013-05-16 06:29:00,66.4,63.7,-100.00,WSW,242,0.0,1.0,91,0.00,,,0.00,meteohub,2013-05-16 11:29:00,
2013-05-16 06:34:00,66.4,63.7,-100.00,WSW,242,0.0,1.0,91,0.00,,,0.00,meteohub,2013-05-16 11:34:00,
2013-05-16 06:39:00,66.6,63.9,-100.00,SW,236,0.0,1.0,91,0.00,,,0.00,meteohub,2013-05-16 11:39:00,
2013-05-16 06:44:00,66.7,63.7,-100.00,SW,221,3.0,4.0,90,0.00,,,0.00,meteohub,2013-05-16 11:44:00,
2013-05-16 06:50:00,66.9,63.9,-100.00,SW,221,4.0,5.0,90,0.00,,,0.00,meteohub,2013-05-16 11:50:00,
2013-05-16 06:55:00,67.3,63.9,-100.00,SW,227,0.0,7.0,89,0.00,,,0.00,meteohub,2013-05-16 11:55:00,
2013-05-16 07:00:00,67.5,63.9,-100.00,SW,228,0.0,9.0,88,0.00,,,0.00,meteohub,2013-05-16 12:00:00,
2013-05-16 07:05:00,67.5,63.9,-100.00,SW,227,0.0,9.0,88,0.00,,,0.00,meteohub,2013-05-16 12:05:00,
2013-05-16 07:10:00,67.6,63.7,-100.00,SW,228,0.0,9.0,87,0.00,,,0.00,meteohub,2013-05-16 12:10:00,
2013-05-16 07:15:00,67.8,63.9,-100.00,SW,228,0.0,3.0,87,0.00,,,0.00,meteohub,2013-05-16 12:15:00,
2013-05-16 07:20:00,67.8,63.9,-100.00,SW,227,0.0,1.0,87,0.00,,,0.00,meteohub,2013-05-16 12:20:00,
2013-05-16 07:25:00,68.0,63.7,-100.00,SW,228,0.0,1.0,86,0.00,,,0.00,meteohub,2013-05-16 12:25:00,
2013-05-16 07:30:00,68.4,64.0,-100.00,SW,227,0.0,1.0,86,0.00,,,0.00,meteohub,2013-05-16 12:30:00,
2013-05-16 07:35:00,68.5,64.2,-100.00,SW,228,0.0,1.0,86,0.00,,,0.00,meteohub,2013-05-16 12:35:00,
2013-05-16 07:40:00,68.7,64.0,-100.00,SW,228,0.0,0.0,85,0.00,,,0.00,meteohub,2013-05-16 12:40:00,
2013-05-16 07:45:00,69.1,64.0,-100.00,SW,228,0.0,1.0,84,0.00,,,0.00,meteohub,2013-05-16 12:45:00,
2013-05-16 07:50:00,69.6,64.2,-100.00,SW,227,0.0,1.0,83,0.00,,,0.00,meteohub,2013-05-16 12:50:00,
2013-05-16 07:55:00,70.0,64.2,-100.00,SW,227,0.0,1.0,82,0.00,,,0.00,meteohub,2013-05-16 12:55:00,
2013-05-16 08:00:00,70.3,64.2,-100.00,SW,225,0.0,5.0,81,0.00,,,0.00,meteohub,2013-05-16 13:00:00,
2013-05-16 08:05:00,70.3,63.9,-100.00,SW,222,0.0,5.0,80,0.00,,,0.00,meteohub,2013-05-16 13:05:00,
2013-05-16 08:10:00,70.3,63.9,-100.00,SW,229,0.0,8.0,80,0.00,,,0.00,meteohub,2013-05-16 13:10:00,
2013-05-16 08:15:00,70.5,63.7,-100.00,SW,232,0.0,8.0,79,0.00,,,0.00,meteohub,2013-05-16 13:15:00,
2013-05-16 08:20:00,71.1,64.2,-100.00,SW,223,0.0,9.0,79,0.00,,,0.00,meteohub,2013-05-16 13:20:00,
2013-05-16 08:25:00,71.4,63.5,-100.00,SSW,202,0.0,9.0,76,0.00,,,0.00,meteohub,2013-05-16 13:25:00,
2013-05-16 08:30:00,71.6,63.3,-100.00,SW,217,0.0,11.0,75,0.00,,,0.00,meteohub,2013-05-16 13:30:00,
2013-05-16 08:35:00,72.1,63.9,-100.00,SSW,205,0.0,12.0,75,0.00,,,0.00,meteohub,2013-05-16 13:35:00,
2013-05-16 08:40:00,72.9,64.0,-100.00,SSW,202,6.0,12.0,74,0.00,,,0.00,meteohub,2013-05-16 13:40:00,
2013-05-16 08:45:00,73.8,64.2,-100.00,SSW,211,5.0,10.0,72,0.00,,,0.00,meteohub,2013-05-16 13:45:00,
2013-05-16 08:50:00,74.1,63.7,-100.00,WSW,238,3.0,10.0,70,0.00,,,0.00,meteohub,2013-05-16 13:50:00,
2013-05-16 08:55:00,75.0,63.7,-100.00,SSW,210,7.0,11.0,68,0.00,,,0.00,meteohub,2013-05-16 13:55:00,
2013-05-16 09:00:00,75.6,63.3,-100.00,SW,235,6.0,12.0,66,0.00,,,0.00,meteohub,2013-05-16 14:00:00,
2013-05-16 09:05:00,76.3,64.0,-100.00,SW,221,0.0,12.0,66,0.00,,,0.00,meteohub,2013-05-16 14:05:00,
2013-05-16 09:10:00,77.4,63.9,-100.00,West,261,0.0,12.0,63,0.00,,,0.00,meteohub,2013-05-16 14:10:00,
2013-05-16 09:15:00,79.2,64.6,-100.00,West,261,0.0,9.0,61,0.00,,,0.00,meteohub,2013-05-16 14:15:00,
2013-05-16 09:20:00,80.4,64.8,-100.00,West,260,0.0,5.0,59,0.00,,,0.00,meteohub,2013-05-16 14:20:00,
2013-05-16 09:25:00,81.7,65.5,-100.00,WSW,250,0.0,3.0,58,0.00,,,0.00,meteohub,2013-05-16 14:25:00,
2013-05-16 09:30:00,82.6,65.3,-100.00,West,259,0.0,6.0,56,0.00,,,0.00,meteohub,2013-05-16 14:30:00,
2013-05-16 09:35:00,83.5,65.7,-100.00,WSW,255,5.0,7.0,55,0.00,,,0.00,meteohub,2013-05-16 14:35:00,
2013-05-16 09:40:00,84.2,65.7,-100.00,West,267,0.0,7.0,54,0.00,,,0.00,meteohub,2013-05-16 14:40:00,
2013-05-16 09:45:00,84.9,65.8,-100.00,West,266,0.0,7.0,53,0.00,,,0.00,meteohub,2013-05-16 14:45:00,
2013-05-16 09:50:00,85.5,65.8,-100.00,WNW,290,0.0,6.0,52,0.00,,,0.00,meteohub,2013-05-16 14:50:00,
2013-05-16 09:55:00,85.6,66.0,-100.00,WNW,286,0.0,3.0,52,0.00,,,0.00,meteohub,2013-05-16 14:55:00,
2013-05-16 10:00:00,85.5,65.8,-100.00,WNW,286,0.0,3.0,52,0.00,,,0.00,meteohub,2013-05-16 15:00:00,
2013-05-16 10:05:00,85.3,66.7,-100.00,WSW,246,0.0,1.0,54,0.00,,,0.00,meteohub,2013-05-16 15:05:00,
2013-05-16 10:10:00,86.7,66.4,-100.00,WSW,246,0.0,1.0,51,0.00,,,0.00,meteohub,2013-05-16 15:10:00,
2013-05-16 10:16:00,86.7,66.4,-100.00,WSW,246,0.0,1.0,51,0.00,,,0.00,meteohub,2013-05-16 15:16:00,
2013-05-16 10:21:00,86.4,66.7,-100.00,WSW,246,0.0,1.0,52,0.00,,,0.00,meteohub,2013-05-16 15:21:00,
2013-05-16 10:26:00,86.4,66.0,-100.00,SW,229,0.0,4.0,51,0.00,,,0.00,meteohub,2013-05-16 15:26:00,
2013-05-16 10:31:00,85.1,65.5,-100.00,SSE,150,0.0,4.0,52,0.00,,,0.00,meteohub,2013-05-16 15:31:00,
2013-05-16 10:36:00,84.9,65.8,-100.00,SSE,150,0.0,4.0,53,0.00,,,0.00,meteohub,2013-05-16 15:36:00,
2013-05-16 10:41:00,86.5,66.7,-100.00,SSE,150,0.0,2.0,52,0.00,,,0.00,meteohub,2013-05-16 15:41:00,
2013-05-16 10:46:00,87.4,67.1,-100.00,SSE,154,0.0,2.0,51,0.00,,,0.00,meteohub,2013-05-16 15:46:00,
2013-05-16 10:51:00,85.6,66.6,-100.00,South,186,2.0,4.0,53,0.00,,,0.00,meteohub,2013-05-16 15:51:00,
2013-05-16 10:56:00,83.8,66.4,-100.00,South,184,1.0,6.0,56,0.00,,,0.00,meteohub,2013-05-16 15:56:00,
2013-05-16 11:01:00,84.4,66.4,-100.00,SW,230,0.0,10.0,55,0.00,,,0.00,meteohub,2013-05-16 16:01:00,
2013-05-16 11:06:00,84.7,67.3,-100.00,SSW,209,9.0,10.0,56,0.00,,,0.00,meteohub,2013-05-16 16:06:00,
2013-05-16 11:15:00,83.7,66.4,-100.00,South,180,0.0,10.0,56,0.00,,,0.00,meteohub,2013-05-16 16:15:00,
2013-05-16 11:20:00,83.5,66.2,-100.00,SSW,205,11.0,11.0,56,0.00,,,0.00,meteohub,2013-05-16 16:20:00,
2013-05-16 11:25:00,82.8,66.9,-100.00,East,92,3.0,10.0,59,0.00,,,0.00,meteohub,2013-05-16 16:25:00,
2013-05-16 11:30:00,82.4,66.2,-100.00,ESE,118,3.0,11.0,58,0.00,,,0.00,meteohub,2013-05-16 16:30:00,
2013-05-16 11:35:00,81.5,66.7,-100.00,ESE,111,0.0,11.0,61,0.00,,,0.00,meteohub,2013-05-16 16:35:00,
2013-05-16 11:40:00,82.4,67.1,-100.00,South,173,0.0,9.0,60,0.00,,,0.00,meteohub,2013-05-16 16:40:00,
2013-05-16 11:45:00,82.6,67.8,-100.00,South,170,0.0,9.0,61,0.00,,,0.00,meteohub,2013-05-16 16:45:00,
2013-05-16 11:50:00,82.9,68.2,-100.00,South,190,6.0,6.0,61,0.00,,,0.00,meteohub,2013-05-16 16:50:00,
2013-05-16 11:55:00,82.9,67.6,-100.00,South,188,0.0,6.0,60,0.00,,,0.00,meteohub,2013-05-16 16:55:00,
2013-05-16 12:00:00,82.4,67.6,-100.00,East,99,0.0,7.0,61,0.00,,,0.00,meteohub,2013-05-16 17:00:00,
2013-05-16 12:05:00,82.4,67.6,-100.00,SE,130,0.0,7.0,61,0.00,,,0.00,meteohub,2013-05-16 17:05:00,
2013-05-16 12:10:00,82.2,67.5,-100.00,South,184,0.0,9.0,61,0.00,,,0.00,meteohub,2013-05-16 17:10:00,
2013-05-16 12:15:00,82.0,67.3,-100.00,ESE,119,5.0,9.0,61,0.00,,,0.00,meteohub,2013-05-16 17:15:00,
2013-05-16 12:20:00,82.8,66.9,-100.00,ENE,74,1.0,10.0,59,0.00,,,0.00,meteohub,2013-05-16 17:20:00,
2013-05-16 12:25:00,82.0,66.4,-100.00,South,176,3.0,10.0,59,0.00,,,0.00,meteohub,2013-05-16 17:25:00,
2013-05-16 12:30:00,82.0,65.8,-100.00,ESE,111,2.0,11.0,58,0.00,,,0.00,meteohub,2013-05-16 17:30:00,
2013-05-16 12:35:00,82.2,64.9,-100.00,ESE,111,0.0,11.0,56,0.00,,,0.00,meteohub,2013-05-16 17:35:00,
2013-05-16 12:40:00,82.9,64.6,-100.00,East,94,0.0,11.0,54,0.00,,,0.00,meteohub,2013-05-16 17:40:00,
2013-05-16 12:45:00,83.1,64.8,-100.00,ESE,116,0.0,10.0,54,0.00,,,0.00,meteohub,2013-05-16 17:45:00,
2013-05-16 12:50:00,82.8,64.9,-100.00,ESE,117,4.0,9.0,55,0.00,,,0.00,meteohub,2013-05-16 17:50:00,
2013-05-16 12:55:00,82.9,65.7,-100.00,East,101,1.0,9.0,56,0.00,,,0.00,meteohub,2013-05-16 17:55:00,
2013-05-16 13:00:00,83.3,66.0,-100.00,SSW,203,0.0,9.0,56,0.00,,,0.00,meteohub,2013-05-16 18:00:00,
2013-05-16 13:05:00,83.7,65.3,-100.00,ESE,119,0.0,9.0,54,0.00,,,0.00,meteohub,2013-05-16 18:05:00,
2013-05-16 13:10:00,83.8,66.4,-100.00,SSW,207,0.0,9.0,56,0.00,,,0.00,meteohub,2013-05-16 18:10:00,
2013-05-16 13:15:00,84.2,66.7,-100.00,SW,218,0.0,12.0,56,0.00,,,0.00,meteohub,2013-05-16 18:15:00,
2013-05-16 13:20:00,84.4,66.4,-100.00,ESE,121,5.0,12.0,55,0.00,,,0.00,meteohub,2013-05-16 18:20:00,
2013-05-16 13:25:00,83.1,65.3,-100.00,ESE,119,0.0,12.0,55,0.00,,,0.00,meteohub,2013-05-16 18:25:00,
2013-05-16 13:30:00,83.5,66.6,-100.00,SE,129,0.0,7.0,57,0.00,,,0.00,meteohub,2013-05-16 18:30:00,
2013-05-16 13:35:00,84.2,66.2,-100.00,ESE,117,3.0,7.0,55,0.00,,,0.00,meteohub,2013-05-16 18:35:00,
2013-05-16 13:41:00,83.8,66.0,-100.00,ESE,117,0.0,7.0,55,0.00,,,0.00,meteohub,2013-05-16 18:41:00,
2013-05-16 13:46:00,83.8,66.4,-100.00,ESE,110,0.0,10.0,56,0.00,,,0.00,meteohub,2013-05-16 18:46:00,
2013-05-16 13:51:00,84.4,66.4,-100.00,ESE,121,1.0,10.0,55,0.00,,,0.00,meteohub,2013-05-16 18:51:00,
2013-05-16 13:56:00,84.9,66.9,-100.00,South,171,0.0,10.0,55,0.00,,,0.00,meteohub,2013-05-16 18:56:00,
2013-05-16 14:01:00,85.3,66.7,-100.00,ESE,113,0.0,7.0,54,0.00,,,0.00,meteohub,2013-05-16 19:01:00,
2013-05-16 14:06:00,84.9,65.8,-100.00,SSE,156,0.0,9.0,53,0.00,,,0.00,meteohub,2013-05-16 19:06:00,
2013-05-16 14:11:00,84.9,66.4,-100.00,South,176,6.0,11.0,54,0.00,,,0.00,meteohub,2013-05-16 19:11:00,
2013-05-16 14:16:00,85.3,66.2,-100.00,ESE,116,0.0,12.0,53,0.00,,,0.00,meteohub,2013-05-16 19:16:00,
2013-05-16 14:21:00,85.3,65.7,-100.00,ESE,105,3.0,12.0,52,0.00,,,0.00,meteohub,2013-05-16 19:21:00,
2013-05-16 14:26:00,84.9,66.4,-100.00,SSE,159,1.0,12.0,54,0.00,,,0.00,meteohub,2013-05-16 19:26:00,
2013-05-16 14:31:00,85.3,66.2,-100.00,SSW,202,0.0,12.0,53,0.00,,,0.00,meteohub,2013-05-16 19:31:00,
2013-05-16 14:36:00,85.5,66.4,-100.00,SE,130,0.0,12.0,53,0.00,,,0.00,meteohub,2013-05-16 19:36:00,
2013-05-16 14:41:00,85.6,66.6,-100.00,SSE,168,1.0,14.0,53,0.00,,,0.00,meteohub,2013-05-16 19:41:00,
2013-05-16 14:46:00,85.8,66.7,-100.00,ESE,107,2.0,14.0,53,0.00,,,0.00,meteohub,2013-05-16 19:46:00,
2013-05-16 14:51:00,85.5,65.3,-100.00,SSE,155,1.0,14.0,51,0.00,,,0.00,meteohub,2013-05-16 19:51:00,
2013-05-16 14:56:00,85.5,65.8,-100.00,SE,125,0.0,11.0,52,0.00,,,0.00,meteohub,2013-05-16 19:56:00,
2013-05-16 15:01:00,85.5,66.4,-100.00,SSE,150,5.0,11.0,53,0.00,,,0.00,meteohub,2013-05-16 20:01:00,
2013-05-16 15:06:00,85.6,66.6,-100.00,South,186,3.0,9.0,53,0.00,,,0.00,meteohub,2013-05-16 20:06:00,
2013-05-16 15:11:00,85.6,66.0,-100.00,ESE,122,0.0,11.0,52,0.00,,,0.00,meteohub,2013-05-16 20:11:00,
2013-05-16 15:16:00,85.6,66.6,-100.00,SSW,200,0.0,11.0,53,0.00,,,0.00,meteohub,2013-05-16 20:16:00,
2013-05-16 15:21:00,85.8,66.2,-100.00,ESE,114,3.0,14.0,52,0.00,,,0.00,meteohub,2013-05-16 20:21:00,
2013-05-16 15:26:00,86.4,66.0,-100.00,SSW,200,4.0,14.0,51,0.00,,,0.00,meteohub,2013-05-16 20:26:00,
2013-05-16 15:31:00,86.4,67.3,-100.00,South,175,1.0,14.0,53,0.00,,,0.00,meteohub,2013-05-16 20:31:00,
2013-05-16 15:36:00,85.3,65.1,-100.00,East,100,0.0,11.0,51,0.00,,,0.00,meteohub,2013-05-16 20:36:00,
2013-05-16 15:41:00,85.3,65.7,-100.00,ESE,111,0.0,11.0,52,0.00,,,0.00,meteohub,2013-05-16 20:41:00,
2013-05-16 15:46:00,85.6,65.5,-100.00,SSE,164,0.0,9.0,51,0.00,,,0.00,meteohub,2013-05-16 20:46:00,
2013-05-16 15:51:00,85.3,65.7,-100.00,South,184,5.0,13.0,52,0.00,,,0.00,meteohub,2013-05-16 20:51:00,
2013-05-16 15:56:00,85.5,65.3,-100.00,SE,138,6.0,13.0,51,0.00,,,0.00,meteohub,2013-05-16 20:56:00,
2013-05-16 16:01:00,84.7,65.1,-100.00,SE,128,0.0,13.0,52,0.00,,,0.00,meteohub,2013-05-16 21:01:00,
2013-05-16 16:06:00,84.9,65.3,-100.00,SE,126,5.0,11.0,52,0.00,,,0.00,meteohub,2013-05-16 21:06:00,
2013-05-16 16:11:00,84.9,65.8,-100.00,South,181,0.0,11.0,53,0.00,,,0.00,meteohub,2013-05-16 21:11:00,
2013-05-16 16:16:00,84.9,65.8,-100.00,SE,125,0.0,10.0,53,0.00,,,0.00,meteohub,2013-05-16 21:16:00,
2013-05-16 16:21:00,84.9,65.3,-100.00,ESE,105,0.0,12.0,52,0.00,,,0.00,meteohub,2013-05-16 21:21:00,
2013-05-16 16:26:00,84.9,64.8,-100.00,SSW,206,4.0,12.0,51,0.00,,,0.00,meteohub,2013-05-16 21:26:00,
2013-05-16 16:31:00,84.7,65.1,-100.00,SE,125,2.0,16.0,52,0.00,,,0.00,meteohub,2013-05-16 21:31:00,
2013-05-16 16:36:00,83.8,64.4,-100.00,SE,140,3.0,16.0,52,0.00,,,0.00,meteohub,2013-05-16 21:36:00,
2013-05-16 16:41:00,83.3,64.9,-100.00,ESE,119,0.0,16.0,54,0.00,,,0.00,meteohub,2013-05-16 21:41:00,
2013-05-16 16:46:00,82.8,64.4,-100.00,SE,146,0.0,12.0,54,0.00,,,0.00,meteohub,2013-05-16 21:46:00,
2013-05-16 16:51:00,82.8,64.9,-100.00,SE,124,0.0,11.0,55,0.00,,,0.00,meteohub,2013-05-16 21:51:00,
2013-05-16 16:56:00,82.6,64.2,-100.00,East,98,0.0,11.0,54,0.00,,,0.00,meteohub,2013-05-16 21:56:00,
2013-05-16 17:01:00,82.6,64.2,-100.00,ESE,107,0.0,6.0,54,0.00,,,0.00,meteohub,2013-05-16 22:01:00,
2013-05-16 17:06:00,82.6,64.2,-100.00,ESE,121,0.0,14.0,54,0.00,,,0.00,meteohub,2013-05-16 22:06:00,
2013-05-16 17:11:00,82.9,64.6,-100.00,ESE,103,0.0,14.0,54,0.00,,,0.00,meteohub,2013-05-16 22:11:00,
2013-05-16 17:16:00,82.9,65.1,-100.00,SE,131,0.0,14.0,55,0.00,,,0.00,meteohub,2013-05-16 22:16:00,
2013-05-16 17:21:00,83.1,63.7,-100.00,ESE,119,0.0,9.0,52,0.00,,,0.00,meteohub,2013-05-16 22:21:00,
2013-05-16 17:26:00,82.8,64.4,-100.00,SE,125,6.0,10.0,54,0.00,,,0.00,meteohub,2013-05-16 22:26:00,
2013-05-16 17:31:00,81.9,65.1,-100.00,ESE,108,0.0,12.0,57,0.00,,,0.00,meteohub,2013-05-16 22:31:00,
2013-05-16 17:36:00,81.0,65.3,-100.00,ESE,113,0.0,12.0,59,0.00,,,0.00,meteohub,2013-05-16 22:36:00,
2013-05-16 17:41:00,80.4,65.3,-100.00,East,88,0.0,12.0,60,0.00,,,0.00,meteohub,2013-05-16 22:41:00,
2013-05-16 17:46:00,79.7,65.5,-100.00,ESE,122,0.0,9.0,62,0.00,,,0.00,meteohub,2013-05-16 22:46:00,
2013-05-16 17:51:00,80.4,66.2,-100.00,SSW,213,4.0,9.0,62,0.00,,,0.00,meteohub,2013-05-16 22:51:00,
2013-05-16 17:56:00,80.4,66.2,-100.00,SSW,196,0.0,10.0,62,0.00,,,0.00,meteohub,2013-05-16 22:56:00,
2013-05-16 18:01:00,79.5,65.8,-100.00,SSW,205,0.0,10.0,63,0.00,,,0.00,meteohub,2013-05-16 23:01:00,
2013-05-16 18:06:00,78.8,65.7,-100.00,SSW,196,0.0,12.0,64,0.00,,,0.00,meteohub,2013-05-16 23:06:00,
2013-05-16 18:11:00,78.6,65.5,-100.00,SW,224,0.0,12.0,64,0.00,,,0.00,meteohub,2013-05-16 23:11:00,
2013-05-16 18:16:00,78.6,64.9,-100.00,SSW,213,0.0,10.0,63,0.00,,,0.00,meteohub,2013-05-16 23:16:00,
2013-05-16 18:22:00,78.4,65.3,-100.00,SSW,200,0.0,10.0,64,0.00,,,0.00,meteohub,2013-05-16 23:22:00,
2013-05-16 18:27:00,78.1,64.9,-100.00,SSW,198,0.0,10.0,64,0.00,,,0.00,meteohub,2013-05-16 23:27:00,
2013-05-16 18:32:00,78.1,65.3,-100.00,SW,217,0.0,6.0,65,0.00,,,0.00,meteohub,2013-05-16 23:32:00,
2013-05-16 18:37:00,78.1,65.3,-100.00,SW,217,0.0,6.0,65,0.00,,,0.00,meteohub,2013-05-16 23:37:00,
2013-05-16 18:42:00,77.7,64.9,-100.00,SW,215,0.0,6.0,65,0.00,,,0.00,meteohub,2013-05-16 23:42:00,
2013-05-16 18:47:00,77.5,65.3,-100.00,SSW,212,0.0,4.0,66,0.00,,,0.00,meteohub,2013-05-16 23:47:00,
2013-05-16 18:52:00,77.5,65.7,-100.00,SSW,212,0.0,2.0,67,0.00,,,0.00,meteohub,2013-05-16 23:52:00,
2013-05-16 18:57:00,77.5,65.7,-100.00,SSW,211,0.0,1.0,67,0.00,,,0.00,meteohub,2013-05-16 23:57:00,
2013-05-16 19:02:00,77.5,65.7,-100.00,SSW,212,0.0,0.0,67,0.00,,,0.00,meteohub,2013-05-17 00:02:00,
2013-05-16 19:07:00,77.5,66.2,-100.00,SSW,212,0.0,0.0,68,0.00,,,0.00,meteohub,2013-05-17 00:07:00,
2013-05-16 19:12:00,77.5,66.6,-100.00,SSW,212,0.0,0.0,69,0.00,,,0.00,meteohub,2013-05-17 00:12:00,
2013-05-16 19:17:00,77.0,66.0,-100.00,SSW,204,0.0,0.0,69,0.00,,,0.00,meteohub,2013-05-17 00:17:00,
2013-05-16 19:22:00,76.5,65.5,-100.00,SSW,206,0.0,0.0,69,0.00,,,0.00,meteohub,2013-05-17 00:22:00,
2013-05-16 19:27:00,76.3,65.8,-100.00,SSW,205,0.0,6.0,70,0.00,,,0.00,meteohub,2013-05-17 00:27:00,
2013-05-16 19:32:00,75.9,65.8,-100.00,SSW,201,0.0,6.0,71,0.00,,,0.00,meteohub,2013-05-17 00:32:00,
2013-05-16 19:37:00,75.7,65.7,-100.00,SSW,199,0.0,4.0,71,0.00,,,0.00,meteohub,2013-05-17 00:37:00,
2013-05-16 19:42:00,75.6,65.8,-100.00,SSW,198,0.0,1.0,72,0.00,,,0.00,meteohub,2013-05-17 00:42:00,
2013-05-16 19:47:00,75.4,65.7,-100.00,SSW,197,0.0,1.0,72,0.00,,,0.00,meteohub,2013-05-17 00:47:00,
2013-05-16 19:52:00,75.0,65.3,-100.00,SSW,198,0.0,1.0,72,0.00,,,0.00,meteohub,2013-05-17 00:52:00,
2013-05-16 19:57:00,74.7,65.1,-100.00,SSW,197,0.0,1.0,72,0.00,,,0.00,meteohub,2013-05-17 00:57:00,
2013-05-16 20:02:00,74.3,65.1,-100.00,SSW,196,0.0,0.0,73,0.00,,,0.00,meteohub,2013-05-17 01:02:00,
2013-05-16 20:07:00,73.9,64.8,-100.00,SSW,196,0.0,0.0,73,0.00,,,0.00,meteohub,2013-05-17 01:07:00,
2013-05-16 20:12:00,73.4,64.6,-100.00,SSW,197,0.0,0.0,74,0.00,,,0.00,meteohub,2013-05-17 01:12:00,
2013-05-16 20:17:00,73.0,64.2,-100.00,SSW,197,0.0,0.0,74,0.00,,,0.00,meteohub,2013-05-17 01:17:00,
2013-05-16 20:22:00,72.9,64.0,-100.00,SSW,207,0.0,0.0,74,0.00,,,0.00,meteohub,2013-05-17 01:22:00,
2013-05-16 20:27:00,73.2,63.7,-100.00,SW,225,0.0,6.0,72,0.00,,,0.00,meteohub,2013-05-17 01:27:00,
2013-05-16 20:32:00,73.2,63.7,-100.00,SW,217,0.0,11.0,72,0.00,,,0.00,meteohub,2013-05-17 01:32:00,
2013-05-16 20:37:00,73.2,63.7,-100.00,SSW,207,0.0,13.0,72,0.00,,,0.00,meteohub,2013-05-17 01:37:00,
2013-05-16 20:42:00,73.0,63.9,-100.00,SSW,193,0.0,13.0,73,0.00,,,0.00,meteohub,2013-05-17 01:42:00,
2013-05-16 20:47:00,72.7,63.5,-100.00,SSW,192,0.0,6.0,73,0.00,,,0.00,meteohub,2013-05-17 01:47:00,
2013-05-16 20:52:00,72.3,63.5,-100.00,SSW,196,0.0,6.0,74,0.00,,,0.00,meteohub,2013-05-17 01:52:00,
2013-05-16 20:57:00,72.1,63.3,-100.00,SSW,197,0.0,6.0,74,0.00,,,0.00,meteohub,2013-05-17 01:57:00,
2013-05-16 21:02:00,72.0,63.7,-100.00,SSW,194,0.0,6.0,75,0.00,,,0.00,meteohub,2013-05-17 02:02:00,
2013-05-16 21:07:00,71.8,63.9,-100.00,SSW,195,0.0,5.0,76,0.00,,,0.00,meteohub,2013-05-17 02:07:00,
2013-05-16 21:12:00,71.6,63.7,-100.00,SSW,194,0.0,4.0,76,0.00,,,0.00,meteohub,2013-05-17 02:12:00,
2013-05-16 21:17:00,71.4,63.5,-100.00,SSW,194,0.0,4.0,76,0.00,,,0.00,meteohub,2013-05-17 02:17:00,
2013-05-16 21:22:00,71.2,63.7,-100.00,SSW,194,0.0,4.0,77,0.00,,,0.00,meteohub,2013-05-17 02:22:00,
2013-05-16 21:27:00,70.9,63.3,-100.00,SSW,194,0.0,1.0,77,0.00,,,0.00,meteohub,2013-05-17 02:27:00,
2013-05-16 21:32:00,70.5,63.3,-100.00,SSW,194,0.0,1.0,78,0.00,,,0.00,meteohub,2013-05-17 02:32:00,
2013-05-16 21:37:00,70.3,63.1,-100.00,SSW,194,0.0,1.0,78,0.00,,,0.00,meteohub,2013-05-17 02:37:00,
2013-05-16 21:42:00,70.2,63.0,-100.00,SSW,194,0.0,1.0,78,0.00,,,0.00,meteohub,2013-05-17 02:42:00,
2013-05-16 21:47:00,70.0,63.1,-100.00,SSW,194,0.0,0.0,79,0.00,,,0.00,meteohub,2013-05-17 02:47:00,
2013-05-16 21:52:00,69.8,63.0,-100.00,SSW,194,0.0,0.0,79,0.00,,,0.00,meteohub,2013-05-17 02:52:00,
2013-05-16 21:58:00,69.6,62.4,-100.00,South,191,0.0,1.0,78,0.00,,,0.00,meteohub,2013-05-17 02:58:00,
2013-05-16 22:03:00,69.6,62.1,-100.00,South,187,0.0,1.0,77,0.00,,,0.00,meteohub,2013-05-17 03:03:00,
2013-05-16 22:08:00,69.4,61.5,-100.00,South,187,0.0,1.0,76,0.00,,,0.00,meteohub,2013-05-17 03:08:00,
2013-05-16 22:13:00,69.3,62.1,-100.00,South,187,0.0,1.0,78,0.00,,,0.00,meteohub,2013-05-17 03:13:00,
2013-05-16 22:18:00,68.9,61.7,-100.00,South,187,0.0,1.0,78,0.00,,,0.00,meteohub,2013-05-17 03:18:00,
2013-05-16 22:23:00,68.5,62.1,-100.00,South,187,0.0,0.0,80,0.00,,,0.00,meteohub,2013-05-17 03:23:00,
2013-05-16 22:28:00,68.2,61.7,-100.00,South,187,0.0,0.0,80,0.00,,,0.00,meteohub,2013-05-17 03:28:00,
2013-05-16 22:33:00,67.8,61.3,-100.00,South,187,0.0,1.0,80,0.00,,,0.00,meteohub,2013-05-17 03:33:00,
2013-05-16 22:38:00,67.8,61.0,-100.00,South,187,0.0,1.0,79,0.00,,,0.00,meteohub,2013-05-17 03:38:00,
2013-05-16 22:43:00,67.6,61.0,-100.00,South,187,0.0,1.0,79,0.00,,,0.00,meteohub,2013-05-17 03:43:00,
2013-05-16 22:48:00,67.5,60.4,-100.00,South,187,0.0,1.0,78,0.00,,,0.00,meteohub,2013-05-17 03:48:00,
2013-05-16 22:53:00,67.3,60.3,-100.00,South,186,0.0,1.0,78,0.00,,,0.00,meteohub,2013-05-17 03:53:00,
2013-05-16 22:58:00,66.9,59.9,-100.00,South,186,0.0,1.0,78,0.00,,,0.00,meteohub,2013-05-17 03:58:00,
2013-05-16 23:01:00,66.7,60.1,-100.00,South,186,0.0,1.0,79,0.00,,,0.00,meteohub,2013-05-17 04:01:00,
2013-05-16 23:06:00,66.6,59.9,-100.00,South,186,0.0,1.0,79,0.00,,,0.00,meteohub,2013-05-17 04:06:00,
2013-05-16 23:11:00,66.4,59.7,-100.00,South,186,0.0,1.0,79,0.00,,,0.00,meteohub,2013-05-17 04:11:00,
2013-05-16 23:16:00,66.2,59.5,-100.00,South,186,0.0,1.0,79,0.00,,,0.00,meteohub,2013-05-17 04:16:00,
2013-05-16 23:21:00,66.0,59.4,-100.00,South,186,0.0,1.0,79,0.00,,,0.00,meteohub,2013-05-17 04:21:00,
2013-05-16 23:26:00,65.8,59.2,-100.00,South,186,0.0,1.0,79,0.00,,,0.00,meteohub,2013-05-17 04:26:00,
2013-05-16 23:31:00,65.8,59.2,-100.00,South,186,0.0,1.0,79,0.00,,,0.00,meteohub,2013-05-17 04:31:00,
2013-05-16 23:36:00,65.8,59.2,-100.00,South,185,0.0,1.0,79,0.00,,,0.00,meteohub,2013-05-17 04:36:00,
2013-05-16 23:41:00,65.8,59.2,-100.00,South,185,0.0,1.0,79,0.00,,,0.00,meteohub,2013-05-17 04:41:00,
2013-05-16 23:46:00,65.5,58.8,-100.00,South,184,0.0,1.0,79,0.00,,,0.00,meteohub,2013-05-17 04:46:00,
2013-05-16 23:51:00,65.3,58.6,-100.00,South,184,0.0,1.0,79,0.00,,,0.00,meteohub,2013-05-17 04:51:00,
2013-05-16 23:56:00,64.9,58.6,-100.00,South,185,0.0,1.0,80,0.00,,,0.00,meteohub,2013-05-17 04:56:00,